CheckWX is a tool to help pilots better visualize weather data.  It is not intended as a substitute for an official pre-flight weather briefing.

00:25:36 UTC

KCVS METAR
Cannon AFB Airport
Clovis, New Mexico, USA
Current

28 mins ago

KCVS 042358Z AUTO 15005KT 10SM CLR 34/12 A3002 RMK AO2 SLP098 P0080 60080 T03350119 10338 20287 57025 $
Observed
Jul-4 @ 23:58 UTC
Wind
  • 150° at 5 KTS
Visibility
10 SM
Flight Rules
VFR
Cloud Levels
  • Clear skies
Temperature
34°C / 93°F
Dewpoint
12°C / 54°F
Humidity
26%
Altimeter
30.02" Hg
Pressure
1016.62 hPa
Current Rain
0.8"
Previous

1 hour ago

KCVS 042258Z AUTO 19007KT 10SM CLR 33/12 A3003 RMK AO2 SLP104 P0080 T03330117 $
Observed
Jul-4 @ 22:58 UTC
Wind
  • 190° at 7 KTS
Visibility
10 SM
Flight Rules
VFR
Cloud Levels
  • Clear skies
Temperature
33°C / 91°F
Dewpoint
12°C / 54°F
Humidity
28%
Altimeter
30.03" Hg
Pressure
1016.92 hPa
Current Rain
0.8"
Previous

2 hours ago

KCVS 042158Z AUTO 23011KT 10SM CLR 33/12 A3007 RMK AO2 SLP118 P0080 T03330123 $
Observed
Jul-4 @ 21:58 UTC
Wind
  • 230° at 11 KTS
Visibility
10 SM
Flight Rules
VFR
Cloud Levels
  • Clear skies
Temperature
33°C / 91°F
Dewpoint
12°C / 54°F
Humidity
28%
Altimeter
30.07" Hg
Pressure
1018.32 hPa
Current Rain
0.8"